Time;durP1;ratioP1;P1;durP2;ratioP2;P2;SDS_P1;SDS_P2;PMS_P1;PMS_P2;Temp;Humidity;BMP_temperature;BMP_pressure;BME280_temperature;BME280_humidity;BME280_pressure;Samples;Min_cycle;Max_cycle;Signal;HPM_P1;HPM_P2
2023/12/05 00:02:09;;;;;;;18.60;11.20;;;;;;;-3.45;81.36;100538.02;106358;1256;60428;-75
2023/12/05 00:04:37;;;;;;;18.00;11.20;;;;;;;-3.51;81.37;100534.44;105969;1257;60420;-75
2023/12/05 00:07:04;;;;;;;18.60;11.30;;;;;;;-3.58;81.53;100530.73;106253;1251;60431;-74
2023/12/05 00:09:32;;;;;;;14.70;9.80;;;;;;;-3.54;81.57;100534.71;106108;1256;73898;-72
2023/12/05 00:11:59;;;;;;;18.20;11.00;;;;;;;-3.43;81.42;100537.78;105803;1257;70973;-75
2023/12/05 00:14:25;;;;;;;15.60;10.30;;;;;;;-3.44;81.48;100537.45;105885;1257;72546;-74
2023/12/05 00:16:52;;;;;;;16.40;11.50;;;;;;;-3.45;81.62;100537.34;105793;1254;60483;-75
2023/12/05 00:19:19;;;;;;;16.20;11.50;;;;;;;-3.48;81.66;100538.98;105858;1253;60427;-75
2023/12/05 00:21:46;;;;;;;16.80;10.50;;;;;;;-3.49;81.71;100537.84;105879;1255;73953;-74
2023/12/05 00:24:12;;;;;;;15.70;9.90;;;;;;;-3.49;81.42;100536.96;105919;1255;69032;-75
2023/12/05 00:26:39;;;;;;;13.30;9.50;;;;;;;-3.40;81.07;100535.91;106029;1251;72671;-75
2023/12/05 00:29:06;;;;;;;15.60;10.00;;;;;;;-3.35;80.95;100544.39;105860;1256;60382;-74
2023/12/05 00:31:33;;;;;;;14.80;9.50;;;;;;;-3.39;80.92;100545.92;105867;1256;60521;-75
2023/12/05 00:33:59;;;;;;;16.70;10.20;;;;;;;-3.45;80.71;100553.26;105952;1256;73861;-73
2023/12/05 00:36:26;;;;;;;16.80;9.90;;;;;;;-3.54;80.54;100554.64;106046;1255;70243;-75
2023/12/05 00:38:53;;;;;;;15.60;9.70;;;;;;;-3.54;80.48;100559.51;105986;1255;72463;-74
2023/12/05 00:41:20;;;;;;;17.70;11.40;;;;;;;-3.55;80.46;100560.91;105843;1257;60520;-73
2023/12/05 00:43:46;;;;;;;16.70;10.50;;;;;;;-3.65;80.76;100561.30;105866;1257;60432;-74
2023/12/05 00:46:13;;;;;;;15.60;10.80;;;;;;;-3.77;81.09;100557.95;105902;1256;73946;-73
2023/12/05 00:48:40;;;;;;;15.40;9.60;;;;;;;-3.86;81.25;100559.11;105920;1256;70167;-74
2023/12/05 00:51:07;;;;;;;14.90;9.30;;;;;;;-3.83;81.43;100561.42;106010;1256;71316;-73
2023/12/05 00:53:34;;;;;;;17.50;11.70;;;;;;;-3.82;81.31;100561.06;105902;1254;60515;-74
2023/12/05 00:56:00;;;;;;;17.50;11.20;;;;;;;-3.93;81.50;100556.95;106002;1257;60701;-73
2023/12/05 00:58:28;;;;;;;20.60;12.10;;;;;;;-4.05;81.84;100558.95;105991;1257;74000;-73
2023/12/05 01:00:55;;;;;;;16.50;9.90;;;;;;;-4.07;82.08;100562.35;106122;1258;70180;-74
2023/12/05 01:03:22;;;;;;;17.40;10.50;;;;;;;-4.06;82.03;100562.61;107025;1251;70736;-74
2023/12/05 01:05:49;;;;;;;16.70;10.70;;;;;;;-4.15;82.20;100566.55;106819;1258;60399;-75
2023/12/05 01:08:15;;;;;;;17.70;10.70;;;;;;;-4.26;82.54;100576.30;105958;1257;60413;-73
2023/12/05 01:10:42;;;;;;;17.00;11.00;;;;;;;-4.32;82.71;100579.98;105946;1252;73821;-74
2023/12/05 01:13:09;;;;;;;18.80;12.20;;;;;;;-4.32;82.90;100581.16;105974;1261;68907;-74
2023/12/05 01:15:36;;;;;;;17.10;11.40;;;;;;;-4.42;82.99;100575.13;105926;1257;72415;-74
2023/12/05 01:18:02;;;;;;;18.30;11.50;;;;;;;-4.56;83.43;100575.60;105929;1256;60604;-73
2023/12/05 01:20:30;;;;;;;18.60;12.30;;;;;;;-4.57;83.54;100576.33;105962;1252;60646;-73
2023/12/05 01:22:57;;;;;;;17.60;12.40;;;;;;;-4.59;83.73;100579.84;105873;1259;73626;-72
2023/12/05 01:25:23;;;;;;;19.00;12.90;;;;;;;-4.69;83.94;100577.08;105968;1256;70093;-73
2023/12/05 01:27:51;;;;;;;20.80;12.40;;;;;;;-4.79;84.36;100575.50;105965;1255;72407;-73
2023/12/05 01:30:19;;;;;;;21.10;12.70;;;;;;;-4.82;84.76;100576.27;106097;1251;62013;-74
2023/12/05 01:32:46;;;;;;;19.60;12.40;;;;;;;-4.75;84.63;100577.59;106074;1256;60483;-75
2023/12/05 01:35:13;;;;;;;20.90;12.70;;;;;;;-4.78;84.87;100579.60;106579;1257;73751;-74
2023/12/05 01:37:39;;;;;;;17.80;11.60;;;;;;;-4.87;84.88;100583.38;106384;1255;68870;-74
2023/12/05 01:40:09;;;;;;;19.50;11.20;;;;;;;-4.98;85.25;100584.73;106037;1255;72451;-73
2023/12/05 01:42:36;;;;;;;17.40;11.40;;;;;;;-4.97;85.44;100588.00;106014;1256;61027;-76
2023/12/05 01:45:06;;;;;;;18.90;12.20;;;;;;;-4.93;85.15;100584.91;106104;1255;60524;-76
2023/12/05 01:47:41;;;;;;;19.60;11.80;;;;;;;-4.99;85.19;100581.99;105865;1258;73917;-76
2023/12/05 01:50:20;;;;;;;18.90;12.40;;;;;;;-5.10;85.37;100584.42;106033;1258;68904;-74
2023/12/05 01:52:52;;;;;;;19.30;11.90;;;;;;;-5.18;85.63;100588.13;106070;1251;71660;-74
2023/12/05 01:55:19;;;;;;;19.00;11.10;;;;;;;-5.14;85.47;100584.20;105932;1260;62109;-74
2023/12/05 01:57:46;;;;;;;18.50;12.50;;;;;;;-5.16;85.45;100576.66;106073;1254;60395;-75
2023/12/05 02:00:17;;;;;;;18.60;12.00;;;;;;;-5.26;85.75;100575.61;105977;1251;72454;-74
2023/12/05 02:02:44;;;;;;;20.30;11.50;;;;;;;-5.36;85.79;100571.77;105967;1256;70091;-76
2023/12/05 02:05:13;;;;;;;17.60;11.50;;;;;;;-5.34;86.12;100571.52;106067;1257;71424;-74
2023/12/05 02:07:40;;;;;;;22.10;12.70;;;;;;;-5.29;85.72;100563.45;105971;1255;60479;-74
2023/12/05 02:10:08;;;;;;;17.40;12.00;;;;;;;-5.34;85.91;100568.23;106190;1251;60427;-76
2023/12/05 02:12:41;;;;;;;20.50;12.90;;;;;;;-5.42;86.04;100572.81;105981;1254;73745;-74
2023/12/05 02:15:08;;;;;;;19.20;12.30;;;;;;;-5.49;86.21;100572.83;105950;1254;70580;-75
2023/12/05 02:18:03;;;;;;;15.40;11.00;;;;;;;-5.43;86.16;100578.02;105875;1257;71207;-74
2023/12/05 02:20:36;;;;;;;19.90;12.40;;;;;;;-5.44;85.97;100572.00;106146;1251;60605;-76
2023/12/05 02:23:26;;;;;;;18.60;11.80;;;;;;;-5.53;86.12;100574.69;106127;1254;60899;-75
2023/12/05 02:26:18;;;;;;;20.70;13.10;;;;;;;-5.62;86.26;100575.65;105905;1257;73850;-76
2023/12/05 02:28:45;;;;;;;15.00;10.30;;;;;;;-5.54;85.94;100577.65;106066;1254;70318;-74
2023/12/05 02:31:12;;;;;;;20.00;11.80;;;;;;;-5.51;85.93;100570.31;106105;1256;72726;-75
2023/12/05 02:33:39;;;;;;;21.00;13.20;;;;;;;-5.57;85.94;100576.37;105982;1251;60454;-75
2023/12/05 02:36:50;;;;;;;20.10;12.40;;;;;;;-5.66;86.01;100574.19;105958;1254;60414;-75
2023/12/05 02:39:21;;;;;;;21.70;12.30;;;;;;;-5.62;85.67;100581.15;105650;1251;73923;-76
2023/12/05 02:41:51;;;;;;;21.70;12.80;;;;;;;-5.54;85.56;100585.75;106137;1251;70295;-75
2023/12/05 02:44:18;;;;;;;19.50;13.10;;;;;;;-5.60;85.47;100585.41;106085;1251;73185;-73
2023/12/05 02:46:45;;;;;;;24.40;13.80;;;;;;;-5.66;85.67;100582.16;105796;1254;60553;-75
2023/12/05 02:49:12;;;;;;;18.90;12.40;;;;;;;-5.72;85.63;100586.11;106130;1254;60508;-76
2023/12/05 02:51:40;;;;;;;19.60;12.10;;;;;;;-5.65;85.26;100587.98;106286;1257;72394;-76
2023/12/05 02:54:07;;;;;;;17.10;11.20;;;;;;;-5.64;84.89;100586.55;106428;1251;69097;-75
2023/12/05 02:56:35;;;;;;;22.30;12.60;;;;;;;-5.71;85.18;100583.82;106249;1254;72771;-75
2023/12/05 02:59:03;;;;;;;20.30;13.10;;;;;;;-5.78;85.40;100591.11;106256;1251;60503;-76
2023/12/05 03:01:32;;;;;;;20.50;12.90;;;;;;;-5.79;85.38;100590.95;106287;1252;60421;-74
2023/12/05 03:03:59;;;;;;;22.00;14.50;;;;;;;-5.68;85.18;100592.56;106426;1257;73817;-74
2023/12/05 03:06:27;;;;;;;21.90;13.90;;;;;;;-5.71;84.93;100591.09;106450;1257;70471;-73
2023/12/05 03:08:54;;;;;;;27.00;15.50;;;;;;;-5.79;85.07;100592.70;106826;1256;72488;-73
2023/12/05 03:11:20;;;;;;;21.90;13.20;;;;;;;-5.86;85.35;100593.75;106830;1254;60537;-74
2023/12/05 03:13:47;;;;;;;28.90;12.30;;;;;;;-5.86;85.22;100596.35;106816;1254;60376;-76
2023/12/05 03:16:14;;;;;;;20.10;12.80;;;;;;;-5.76;84.82;100602.27;107583;1254;60433;-74
2023/12/05 03:18:41;;;;;;;19.90;12.40;;;;;;;-5.79;84.81;100605.97;107550;1251;70415;-74
2023/12/05 03:21:09;;;;;;;21.10;12.80;;;;;;;-5.87;85.18;100604.14;106497;1251;71362;-75
2023/12/05 03:23:36;;;;;;;24.00;15.70;;;;;;;-5.96;85.38;100601.45;105914;1254;60527;-76
2023/12/05 03:26:03;;;;;;;19.80;13.00;;;;;;;-5.94;85.13;100599.68;106000;1257;60514;-75
2023/12/05 03:28:30;;;;;;;21.70;13.60;;;;;;;-5.87;84.87;100597.40;106019;1254;74647;-75
2023/12/05 03:30:56;;;;;;;21.20;12.80;;;;;;;-5.93;84.90;100600.86;106050;1255;68921;-76
2023/12/05 03:33:23;;;;;;;20.40;11.60;;;;;;;-6.01;85.19;100599.89;105960;1254;72632;-76
2023/12/05 03:35:50;;;;;;;22.70;13.70;;;;;;;-6.07;85.44;100604.37;105997;1252;61111;-77
2023/12/05 03:38:16;;;;;;;21.00;12.90;;;;;;;-6.06;85.34;100611.23;105838;1254;60249;-77
2023/12/05 03:40:43;;;;;;;19.70;11.30;;;;;;;-5.97;85.31;100604.78;106055;1251;72537;-76
2023/12/05 03:43:10;;;;;;;26.60;15.80;;;;;;;-5.99;85.40;100607.08;105944;1251;70308;-77
2023/12/05 03:45:36;;;;;;;25.60;13.40;;;;;;;-6.06;85.58;100602.10;106076;1251;71723;-76
2023/12/05 03:48:03;;;;;;;23.80;14.00;;;;;;;-6.12;85.89;100601.73;105893;1257;60889;-74
2023/12/05 03:50:30;;;;;;;19.60;12.60;;;;;;;-6.07;85.60;100598.49;106063;1252;60407;-73
2023/12/05 03:52:57;;;;;;;24.10;14.20;;;;;;;-5.98;85.40;100598.75;105834;1256;73979;-76
2023/12/05 03:55:23;;;;;;;23.00;13.70;;;;;;;-6.01;85.47;100598.00;106004;1251;69032;-73
2023/12/05 03:57:50;;;;;;;23.40;14.00;;;;;;;-6.08;85.42;100599.39;106084;1251;70309;-75
2023/12/05 04:00:17;;;;;;;24.30;14.80;;;;;;;-6.15;85.81;100602.50;105951;1254;61476;-75
2023/12/05 04:02:44;;;;;;;21.00;13.50;;;;;;;-6.14;85.83;100603.85;105836;1251;60332;-77
2023/12/05 04:05:12;;;;;;;23.20;14.10;;;;;;;-6.07;85.46;100606.95;106005;1257;73934;-76
2023/12/05 04:07:40;;;;;;;22.80;14.10;;;;;;;-6.12;85.57;100611.22;106053;1251;70331;-74
2023/12/05 04:10:08;;;;;;;28.30;16.70;;;;;;;-6.21;85.78;100601.29;105944;1251;71230;-75
2023/12/05 04:12:35;;;;;;;26.80;15.40;;;;;;;-6.29;86.14;100596.49;106101;1256;60478;-75
2023/12/05 04:15:02;;;;;;;26.80;15.40;;;;;;;-6.29;86.00;100592.88;105927;1251;60531;-75
2023/12/05 04:17:29;;;;;;;32.90;19.70;;;;;;;-6.19;85.74;100594.69;105759;1259;73847;-75
2023/12/05 04:19:56;;;;;;;24.90;15.80;;;;;;;-6.19;85.96;100596.23;106119;1255;69338;-74
2023/12/05 04:22:24;;;;;;;25.40;15.00;;;;;;;-6.22;86.25;100595.97;106002;1256;72753;-73
2023/12/05 04:24:50;;;;;;;24.50;16.50;;;;;;;-6.25;86.29;100591.21;105989;1251;60510;-74
2023/12/05 04:27:17;;;;;;;27.10;14.60;;;;;;;-6.28;86.42;100586.15;105952;1251;60471;-75
2023/12/05 04:29:45;;;;;;;27.00;16.00;;;;;;;-6.19;86.28;100586.23;106018;1251;73823;-75
2023/12/05 04:32:12;;;;;;;24.60;16.10;;;;;;;-6.09;85.95;100587.00;105939;1257;70184;-74
2023/12/05 04:34:43;;;;;;;29.30;16.80;;;;;;;-6.10;85.87;100587.88;106025;1254;70356;-75
2023/12/05 04:37:09;;;;;;;28.70;17.00;;;;;;;-6.15;86.02;100582.48;105962;1251;60541;-72
2023/12/05 04:39:36;;;;;;;27.30;17.10;;;;;;;-6.19;86.44;100584.52;105928;1253;60518;-76
2023/12/05 04:42:03;;;;;;;32.30;18.60;;;;;;;-6.23;86.51;100585.82;106587;1251;73861;-73
2023/12/05 04:44:31;;;;;;;29.60;18.10;;;;;;;-6.14;86.28;100588.85;108034;1251;69028;-73
2023/12/05 04:46:58;;;;;;;30.50;17.10;;;;;;;-6.05;86.03;100589.13;107322;1253;71279;-75
2023/12/05 04:49:24;;;;;;;32.20;19.00;;;;;;;-6.06;86.16;100591.59;106199;1250;60535;-77
2023/12/05 04:51:52;;;;;;;43.80;27.20;;;;;;;-6.15;86.30;100586.82;105989;1256;60426;-74
2023/12/05 04:54:18;;;;;;;33.00;21.50;;;;;;;-6.16;86.66;100596.15;105930;1251;72474;-76
2023/12/05 04:56:45;;;;;;;27.60;17.00;;;;;;;-6.20;86.47;100594.73;105953;1256;69205;-74
2023/12/05 04:59:12;;;;;;;32.70;19.40;;;;;;;-6.21;86.62;100596.12;106008;1251;72637;-76
2023/12/05 05:01:39;;;;;;;36.00;22.40;;;;;;;-6.12;86.33;100598.98;105843;1253;61953;-74
2023/12/05 05:04:06;;;;;;;41.40;26.00;;;;;;;-6.09;86.24;100600.98;105883;1253;60528;-76
2023/12/05 05:06:33;;;;;;;43.40;25.60;;;;;;;-6.15;86.79;100601.46;105993;1257;73921;-74
2023/12/05 05:08:59;;;;;;;39.90;22.80;;;;;;;-6.20;86.77;100594.89;106063;1256;70207;-75
2023/12/05 05:11:27;;;;;;;39.70;21.90;;;;;;;-6.23;86.85;100598.25;105893;1257;71135;-78
2023/12/05 05:13:54;;;;;;;36.90;20.60;;;;;;;-6.17;86.76;100601.16;105802;1254;62084;-75
2023/12/05 05:16:25;;;;;;;34.00;19.60;;;;;;;-6.05;86.63;100610.69;105994;1257;61306;-76
2023/12/05 05:18:52;;;;;;;35.40;21.00;;;;;;;-6.04;86.57;100616.00;105896;1251;74288;-75
2023/12/05 05:21:19;;;;;;;29.30;18.10;;;;;;;-6.08;86.66;100615.25;106042;1254;69439;-74
2023/12/05 05:23:46;;;;;;;35.20;19.20;;;;;;;-6.14;86.66;100610.59;105991;1256;73065;-76
2023/12/05 05:26:14;;;;;;;27.00;17.30;;;;;;;-6.18;86.95;100613.61;106071;1251;61996;-76
2023/12/05 05:28:43;;;;;;;27.60;16.10;;;;;;;-6.07;86.78;100614.70;106081;1251;60450;-76
2023/12/05 05:31:10;;;;;;;22.50;15.90;;;;;;;-5.98;86.54;100616.88;106346;1251;73647;-76
2023/12/05 05:33:37;;;;;;;27.00;15.60;;;;;;;-5.99;86.62;100619.83;108314;1250;70065;-77
2023/12/05 05:36:05;;;;;;;25.50;16.80;;;;;;;-6.01;86.75;100621.95;106620;1256;71222;-76
2023/12/05 05:38:31;;;;;;;29.00;16.80;;;;;;;-6.03;86.71;100618.58;106181;1254;60511;-74
2023/12/05 05:41:06;;;;;;;29.30;16.60;;;;;;;-6.05;86.73;100625.71;105999;1251;60532;-73
2023/12/05 05:43:32;;;;;;;23.70;14.70;;;;;;;-5.97;86.73;100633.77;105871;1257;73590;-75
2023/12/05 05:46:00;;;;;;;31.30;17.00;;;;;;;-5.85;86.36;100635.48;106066;1254;69195;-75
2023/12/05 05:48:27;;;;;;;25.90;15.50;;;;;;;-5.84;86.41;100635.80;106066;1252;70333;-74
2023/12/05 05:50:54;;;;;;;30.40;17.20;;;;;;;-5.89;86.45;100634.55;105963;1254;60519;-73
2023/12/05 05:53:20;;;;;;;31.90;19.20;;;;;;;-5.94;86.42;100642.10;105973;1251;60329;-75
2023/12/05 05:55:47;;;;;;;28.60;17.20;;;;;;;-5.96;86.70;100645.80;106157;1255;73810;-75
2023/12/05 05:58:14;;;;;;;25.30;15.40;;;;;;;-5.90;86.39;100645.81;105966;1254;70259;-75
2023/12/05 06:00:41;;;;;;;31.00;17.50;;;;;;;-5.79;86.05;100648.60;106012;1256;72384;-79
2023/12/05 06:03:08;;;;;;;29.10;18.10;;;;;;;-5.80;86.22;100652.94;106169;1251;60527;-81
2023/12/05 06:05:35;;;;;;;50.30;22.30;;;;;;;-5.85;86.30;100661.19;105942;1253;60475;-79
2023/12/05 06:08:02;;;;;;;41.30;21.70;;;;;;;-5.90;86.31;100656.51;106170;1256;73924;-79
2023/12/05 06:10:29;;;;;;;44.60;24.50;;;;;;;-5.94;86.30;100656.77;106068;1256;70143;-80
2023/12/05 06:12:56;;;;;;;31.30;17.50;;;;;;;-5.88;86.00;100665.58;107405;1251;72722;-79
2023/12/05 06:15:23;;;;;;;32.50;19.00;;;;;;;-5.80;85.83;100661.05;107285;1253;60534;-79
2023/12/05 06:17:50;;;;;;;31.90;17.40;;;;;;;-5.86;85.70;100666.55;107611;1256;60203;-80
2023/12/05 06:20:17;;;;;;;33.30;18.60;;;;;;;-5.92;86.14;100672.40;107714;1251;72625;-78
2023/12/05 06:22:44;;;;;;;30.80;18.70;;;;;;;-5.95;86.40;100674.22;107141;1253;70184;-78
2023/12/05 06:25:11;;;;;;;31.60;17.50;;;;;;;-5.87;86.21;100677.79;107786;1253;72441;-79
2023/12/05 06:27:37;;;;;;;32.90;19.20;;;;;;;-5.73;86.09;100682.41;108039;1252;59122;-78
2023/12/05 06:30:05;;;;;;;32.00;20.20;;;;;;;-5.71;86.01;100688.60;108004;1253;59886;-76
2023/12/05 06:32:47;;;;;;;38.50;22.00;;;;;;;-5.75;86.14;100691.96;107563;1253;73772;-76
2023/12/05 06:35:14;;;;;;;30.30;19.20;;;;;;;-5.75;86.41;100693.52;107616;1251;67961;-79
2023/12/05 06:37:42;;;;;;;32.70;18.50;;;;;;;-5.72;86.23;100692.77;106367;1251;72831;-77
2023/12/05 06:40:09;;;;;;;33.60;21.50;;;;;;;-5.60;85.99;100697.26;106206;1253;61807;-78
2023/12/05 06:42:38;;;;;;;35.80;22.40;;;;;;;-5.46;85.71;100696.86;106232;1257;60574;-77
2023/12/05 06:45:15;;;;;;;40.70;23.80;;;;;;;-5.42;85.87;100695.05;106151;1253;75490;-78
2023/12/05 06:47:43;;;;;;;42.70;24.60;;;;;;;-5.38;86.07;100693.19;106180;1253;68867;-77
2023/12/05 06:50:11;;;;;;;44.90;25.70;;;;;;;-5.34;86.23;100693.27;106159;1252;72660;-78
2023/12/05 06:52:39;;;;;;;46.00;28.70;;;;;;;-5.32;85.94;100691.84;106261;1251;60478;-78
2023/12/05 06:55:08;;;;;;;53.00;29.50;;;;;;;-5.31;85.85;100685.24;106298;1254;60476;-79
2023/12/05 06:57:34;;;;;;;47.10;28.20;;;;;;;-5.28;85.70;100687.91;106266;1251;73991;-77
2023/12/05 07:00:03;;;;;;;49.40;28.00;;;;;;;-5.15;85.20;100690.29;106180;1256;69800;-77
2023/12/05 07:02:31;;;;;;;45.80;26.00;;;;;;;-5.03;84.37;100689.07;106260;1256;72701;-77
2023/12/05 07:04:58;;;;;;;51.80;29.10;;;;;;;-5.01;84.30;100687.12;106092;1253;60514;-75
2023/12/05 07:07:26;;;;;;;50.00;27.60;;;;;;;-5.02;84.56;100689.91;106161;1251;60782;-78
2023/12/05 07:09:52;;;;;;;49.00;28.60;;;;;;;-5.03;84.31;100689.95;105975;1256;73544;-75
2023/12/05 07:12:19;;;;;;;50.90;31.40;;;;;;;-5.09;84.10;100687.70;106047;1251;68863;-77
2023/12/05 07:14:46;;;;;;;46.80;27.90;;;;;;;-5.12;84.14;100691.93;106121;1251;72707;-77
2023/12/05 07:17:13;;;;;;;46.80;28.10;;;;;;;-5.04;83.84;100688.95;106015;1253;61767;-78
2023/12/05 07:19:40;;;;;;;47.80;29.20;;;;;;;-4.90;83.49;100690.93;106161;1253;60409;-78
2023/12/05 07:22:07;;;;;;;55.00;32.00;;;;;;;-4.84;83.53;100684.34;106229;1251;73808;-78
2023/12/05 07:24:37;;;;;;;45.70;28.40;;;;;;;-4.83;83.57;100686.05;106304;1253;70355;-76
2023/12/05 07:27:04;;;;;;;50.10;31.20;;;;;;;-4.82;83.34;100685.70;106176;1253;72560;-78
2023/12/05 07:29:30;;;;;;;49.70;28.40;;;;;;;-4.85;83.21;100683.69;106082;1255;60529;-78
2023/12/05 07:31:57;;;;;;;47.80;28.30;;;;;;;-4.79;83.01;100684.38;106057;1258;60326;-77
2023/12/05 07:34:24;;;;;;;53.10;31.10;;;;;;;-4.65;82.71;100689.98;106148;1256;73643;-78
2023/12/05 07:36:51;;;;;;;55.00;32.40;;;;;;;-4.64;82.36;100687.36;106104;1251;70393;-78
2023/12/05 07:39:18;;;;;;;52.50;31.40;;;;;;;-4.66;82.81;100685.16;106219;1251;71554;-78
2023/12/05 07:41:45;;;;;;;58.20;34.00;;;;;;;-4.66;82.73;100686.71;106060;1253;60473;-78
2023/12/05 07:44:12;;;;;;;52.00;30.50;;;;;;;-4.66;82.63;100690.70;106456;1251;59155;-77
2023/12/05 07:46:42;;;;;;;48.20;27.90;;;;;;;-4.55;82.63;100689.49;106943;1251;73674;-78
2023/12/05 07:49:09;;;;;;;52.40;31.20;;;;;;;-4.36;82.32;100686.83;108260;1253;68898;-78
2023/12/05 07:51:37;;;;;;;46.70;29.80;;;;;;;-4.28;82.27;100691.23;106487;1256;72560;-77
2023/12/05 07:54:05;;;;;;;44.90;29.40;;;;;;;-4.24;81.96;100687.80;108127;1256;59418;-78
2023/12/05 07:56:32;;;;;;;47.00;26.30;;;;;;;-4.23;81.79;100692.80;108666;1253;59228;-78
2023/12/05 07:58:59;;;;;;;42.80;26.80;;;;;;;-4.19;81.49;100690.05;106719;1253;72358;-78
2023/12/05 08:01:26;;;;;;;42.60;26.90;;;;;;;-4.03;81.02;100694.20;106218;1253;70348;-79
2023/12/05 08:03:53;;;;;;;42.30;26.70;;;;;;;-3.95;80.59;100694.80;106235;1252;72627;-79
2023/12/05 08:06:20;;;;;;;42.90;28.90;;;;;;;-3.97;80.50;100691.23;106366;1251;60629;-78
2023/12/05 08:08:47;;;;;;;48.60;30.10;;;;;;;-3.98;80.60;100689.52;106029;1256;285185;-78
2023/12/05 08:14:36;;;;;;;47.00;29.20;;;;;;;-3.83;80.79;100689.35;102531;1292;602029;-78
2023/12/05 08:17:03;;;;;;;43.80;27.30;;;;;;;-3.61;80.07;100702.09;105242;1269;59349;-78
2023/12/05 08:19:30;;;;;;;47.60;30.10;;;;;;;-3.47;79.51;100701.42;105359;1269;59687;-79
2023/12/05 08:21:57;;;;;;;53.00;32.70;;;;;;;-3.43;79.58;100694.01;105591;1266;73502;-76
2023/12/05 08:24:24;;;;;;;60.50;36.30;;;;;;;-3.35;79.95;100691.82;106715;1258;69406;-79
2023/12/05 08:26:51;;;;;;;52.80;33.70;;;;;;;-3.21;80.40;100689.75;106587;1255;181006;-78
2023/12/05 08:29:18;;;;;;;61.90;36.30;;;;;;;-3.06;79.68;100689.67;106774;1259;59912;-78
2023/12/05 08:31:45;;;;;;;55.80;34.20;;;;;;;-2.97;78.95;100689.35;106098;1254;60213;-78
2023/12/05 08:34:12;;;;;;;57.50;34.10;;;;;;;-2.91;78.30;100693.14;105922;1257;71174;-78
2023/12/05 08:36:42;;;;;;;53.70;34.20;;;;;;;-2.77;77.91;100691.70;106216;1258;70353;-79
2023/12/05 08:39:11;;;;;;;55.70;34.70;;;;;;;-2.61;77.19;100693.67;106194;1254;72513;-79
2023/12/05 08:41:38;;;;;;;65.30;36.70;;;;;;;-2.54;77.09;100690.81;105925;1258;59964;-78
2023/12/05 08:44:05;;;;;;;62.50;36.50;;;;;;;-2.51;76.59;100689.99;106097;1257;60000;-82
2023/12/05 08:46:32;;;;;;;67.80;37.60;;;;;;;-2.49;76.62;100685.04;106001;1258;71550;-78
2023/12/05 08:48:59;;;;;;;70.10;36.90;;;;;;;-2.39;77.07;100683.09;105972;1255;69208;-79
2023/12/05 08:51:26;;;;;;;69.80;38.50;;;;;;;-2.23;77.03;100682.61;105766;1255;72999;-79
2023/12/05 08:53:53;;;;;;;60.70;33.90;;;;;;;-2.04;76.87;100680.08;105906;1257;59683;-77
2023/12/05 08:56:20;;;;;;;56.80;33.10;;;;;;;-1.70;76.55;100676.55;105773;1254;60202;-80
2023/12/05 08:58:47;;;;;;;59.90;35.10;;;;;;;-1.35;76.09;100673.61;105886;1255;72978;-78
2023/12/05 09:01:14;;;;;;;55.90;33.50;;;;;;;-1.08;75.63;100670.27;106011;1254;70047;-79
2023/12/05 09:03:41;;;;;;;57.90;34.20;;;;;;;-0.90;74.38;100663.89;106064;1254;72577;-79
2023/12/05 09:06:09;;;;;;;51.20;32.10;;;;;;;-0.71;74.35;100660.38;105863;1260;59695;-79
2023/12/05 09:08:37;;;;;;;45.30;29.00;;;;;;;-0.48;73.64;100654.75;105720;1261;60392;-78
2023/12/05 09:11:05;;;;;;;37.20;24.50;;;;;;;-0.32;72.51;100652.94;106040;1255;73034;-78
2023/12/05 09:13:32;;;;;;;34.80;22.30;;;;;;;-0.10;72.22;100656.34;105829;1262;69711;-78
2023/12/05 09:15:59;;;;;;;34.30;23.40;;;;;;;0.12;71.37;100655.59;106013;1254;73895;-78
2023/12/05 09:18:26;;;;;;;34.70;24.50;;;;;;;0.32;71.29;100652.47;105956;1259;59683;-79
2023/12/05 09:20:53;;;;;;;35.90;25.10;;;;;;;0.65;70.81;100652.45;106660;1254;59671;-81
2023/12/05 09:23:20;;;;;;;41.70;26.10;;;;;;;1.07;70.79;100647.04;107096;1257;72848;-78
2023/12/05 09:25:47;;;;;;;39.40;27.40;;;;;;;1.56;69.81;100640.80;107511;1260;69101;-79
2023/12/05 09:28:14;;;;;;;40.20;27.60;;;;;;;1.95;67.98;100637.48;107062;1259;72644;-77
2023/12/05 09:30:42;;;;;;;40.10;26.20;;;;;;;2.24;66.76;100637.84;107436;1254;59518;-77
2023/12/05 09:33:08;;;;;;;39.10;25.40;;;;;;;2.39;65.74;100637.33;108218;1254;60760;-78
2023/12/05 09:35:35;;;;;;;35.70;24.10;;;;;;;2.63;65.71;100630.59;107048;1254;71536;-78
2023/12/05 09:38:02;;;;;;;35.50;24.50;;;;;;;2.89;64.93;100626.86;106978;1254;70148;-80
2023/12/05 09:40:31;;;;;;;37.60;26.30;;;;;;;3.05;64.22;100627.04;107578;1258;71506;-84
2023/12/05 09:43:01;;;;;;;40.80;24.90;;;;;;;3.16;63.27;100630.05;107388;1256;59698;-82
2023/12/05 09:45:31;;;;;;;40.30;25.80;;;;;;;3.27;63.13;100625.65;107088;1256;61364;-83
2023/12/05 09:47:58;;;;;;;44.00;28.90;;;;;;;3.53;63.12;100623.27;107422;1259;73170;-82
2023/12/05 09:50:25;;;;;;;53.20;30.30;;;;;;;3.75;62.39;100619.85;107070;1260;68507;-79
2023/12/05 09:52:52;;;;;;;52.00;31.60;;;;;;;3.95;62.63;100614.66;106960;1254;71109;-79
2023/12/05 09:55:19;;;;;;;66.30;39.40;;;;;;;4.12;61.62;100610.20;106772;1257;59796;-79
2023/12/05 09:57:47;;;;;;;74.30;42.40;;;;;;;4.27;61.67;100610.72;106940;1257;60015;-77
2023/12/05 10:00:14;;;;;;;70.80;42.50;;;;;;;4.49;61.62;100610.63;107696;1254;71482;-78
2023/12/05 10:02:44;;;;;;;70.80;41.30;;;;;;;4.65;61.25;100611.42;107240;1255;67833;-79
2023/12/05 10:05:11;;;;;;;72.30;40.70;;;;;;;4.77;61.69;100610.91;107072;1261;72590;-79
2023/12/05 10:07:38;;;;;;;63.90;39.30;;;;;;;4.84;60.80;100609.33;106667;1260;59605;-79
2023/12/05 10:10:07;;;;;;;62.30;36.90;;;;;;;4.89;60.66;100612.13;106574;1258;59518;-80
2023/12/05 10:12:36;;;;;;;62.20;35.90;;;;;;;4.87;59.29;100613.16;106697;1257;73565;-80
2023/12/05 10:15:03;;;;;;;54.30;34.40;;;;;;;4.71;59.16;100613.98;106495;1259;70156;-79
2023/12/05 10:17:33;;;;;;;56.30;33.50;;;;;;;4.50;58.51;100611.39;106779;1257;71444;-79
2023/12/05 10:20:00;;;;;;;44.30;28.20;;;;;;;4.13;58.60;100612.77;107180;1254;59573;-78
2023/12/05 10:22:27;;;;;;;43.40;27.10;;;;;;;3.75;58.33;100615.19;106987;1254;61284;-77
2023/12/05 10:24:56;;;;;;;55.40;33.80;;;;;;;3.29;58.26;100613.77;107240;1254;72908;-78
2023/12/05 10:27:23;;;;;;;48.40;31.40;;;;;;;2.96;59.74;100617.15;107056;1254;70378;-78
2023/12/05 10:29:50;;;;;;;53.90;33.30;;;;;;;2.81;61.14;100621.77;106871;1257;71438;-78
2023/12/05 10:32:17;;;;;;;58.90;34.40;;;;;;;2.67;61.06;100618.45;106708;1254;60911;-78
2023/12/05 10:34:48;;;;;;;55.90;34.70;;;;;;;2.48;61.57;100618.71;106504;1253;60179;-79
2023/12/05 10:37:25;;;;;;;55.60;34.20;;;;;;;2.26;60.84;100618.69;106623;1257;72271;-78
2023/12/05 10:39:54;;;;;;;50.20;33.10;;;;;;;1.96;61.34;100611.55;106620;1257;69011;-78
2023/12/05 10:42:27;;;;;;;50.80;31.10;;;;;;;1.70;61.84;100608.19;107010;1251;74143;-78
2023/12/05 10:44:55;;;;;;;49.60;29.80;;;;;;;1.52;62.73;100607.54;107164;1253;59660;-78
2023/12/05 10:47:22;;;;;;;42.20;26.20;;;;;;;1.35;62.11;100609.52;106964;1254;60134;-79
2023/12/05 10:49:49;;;;;;;41.50;25.20;;;;;;;1.14;62.04;100601.98;106729;1256;72921;-76
2023/12/05 10:52:16;;;;;;;45.20;27.60;;;;;;;0.97;62.94;100600.49;106610;1254;70213;-77
2023/12/05 10:54:46;;;;;;;39.40;24.50;;;;;;;0.82;63.07;100602.04;106416;1258;71507;-77
2023/12/05 10:57:13;;;;;;;39.10;25.70;;;;;;;0.65;63.38;100599.66;106623;1251;59680;-78
2023/12/05 10:59:40;;;;;;;45.10;27.30;;;;;;;0.49;63.77;100598.93;106524;1254;59113;-76
2023/12/05 11:02:12;;;;;;;47.50;27.90;;;;;;;0.35;64.30;100592.02;106467;1254;71653;-76
2023/12/05 11:04:43;;;;;;;51.00;27.90;;;;;;;0.24;64.77;100593.12;106751;1254;71392;-76
2023/12/05 11:07:11;;;;;;;43.10;26.40;;;;;;;0.24;65.48;100599.23;107891;1254;71260;-77
2023/12/05 11:09:42;;;;;;;49.60;25.50;;;;;;;0.34;65.38;100600.27;106394;1254;60906;-75